This is the latest recevied weather packets stored in our database for station/object KI5GCD-13. If no packets are shown the sender has not sent any weather packets the latest 1 day(s).
| Time | Temp. | Humidity | Pressure | Rain* | Wind** | Luminosity | Snow |
|---|---|---|---|---|---|---|---|
| 1778119787 | 8.89° C | 91% | 1013.8 hPa | 0 mm | 0 m/s | - | - |
| 1778118887 | 10° C | 85% | 1013.5 hPa | 0 mm | 0 m/s | - | - |
| 1778118587 | 10° C | 83% | 1013.4 hPa | 0 mm | 0 m/s | - | - |
| 1778117987 | 10.56° C | 81% | 1013.4 hPa | 0 mm | 0 m/s | - | - |
| 1778117687 | 11.11° C | 78% | 1013.3 hPa | 0 mm | 0 m/s | - | - |
| 1778117388 | 11.67° C | 73% | 1013.1 hPa | 0 mm | 0 m/s | - | - |
| 1778117088 | 12.22° C | 74% | 1013.2 hPa | 0 mm | 0 m/s | - | - |
| 1778116787 | 12.22° C | 71% | 1013.1 hPa | 0 mm | 0 m/s | - | - |
| 1778116487 | 12.78° C | 68% | 1013.3 hPa | 0 mm | 0 m/s | - | - |
| 1778116188 | 13.33° C | 66% | 1013 hPa | 0 mm | 0 m/s | - | - |
| 1778115887 | 13.89° C | 61% | 1012.9 hPa | 0 mm | 0 m/s | - | - |
| 1778115587 | 13.89° C | 58% | 1012.8 hPa | 0 mm | 0.45 m/s, 147° | - | - |
| 1778115288 | 14.44° C | 58% | 1012.9 hPa | 0 mm | 0.89 m/s, 63° | - | - |
| 1778114988 | 14.44° C | 60% | 1013 hPa | 0 mm | 0.45 m/s, 281° | - | - |
| 1778114388 | 15° C | 55% | 1012.9 hPa | 0 mm | 0.89 m/s, 25° | - | - |
| 1778114087 | 15° C | 54% | 1012.7 hPa | 0 mm | 0.45 m/s, 260° | - | - |
| 1778113787 | 15° C | 54% | 1012.7 hPa | 0 mm | 0.45 m/s, 266° | - | - |
| 1778113488 | 15° C | 53% | 1012.6 hPa | 0 mm | 0.89 m/s, 57° | - | - |
| 1778113187 | 15° C | 53% | 1012.6 hPa | 0 mm | 0 m/s | - | - |
| 1778112888 | 15.56° C | 53% | 1012.3 hPa | 0 mm | 0.89 m/s, 274° | - | - |
| 1778110787 | 16.11° C | 53% | 1012.4 hPa | 0 mm | 1.34 m/s, 18° | - | - |
| 1778109587 | 16.11° C | 52% | 1012.1 hPa | 0 mm | 1.79 m/s, 95° | - | - |
| 1778107788 | 16.67° C | 54% | 1011.7 hPa | 0 mm | 0.45 m/s, 268° | - | - |
| 1778106287 | 16.11° C | 56% | 1011.5 hPa | 0 mm | 1.79 m/s, 294° | - | - |
| 1778105688 | 16.11° C | 53% | 1011.6 hPa | 0 mm | 1.34 m/s, 314° | - | - |
* Rain latest hour (hover to see other rain measurements)
** Current wind speed in m/s (hover to see current wind gust speed)